Time;durP1;ratioP1;P1;durP2;ratioP2;P2;SDS_P1;SDS_P2;PMS_P1;PMS_P2;Temp;Humidity;BMP_temperature;BMP_pressure;BME280_temperature;BME280_humidity;BME280_pressure;Samples;Min_cycle;Max_cycle;Signal;HPM_P1;HPM_P2
2024/04/09 00:00:43;;;;;;;7.95;2.63;;;14.90;99.90;;;;;;5489061;26;19995;-38
2024/04/09 00:03:08;;;;;;;4.95;2.63;;;14.80;99.90;;;;;;5488827;26;20450;-40
2024/04/09 00:05:39;;;;;;;5.80;2.40;;;14.80;99.90;;;;;;5489101;26;19994;-37
2024/04/09 00:08:07;;;;;;;6.88;2.50;;;14.80;99.90;;;;;;5457277;26;20009;-37
2024/04/09 00:10:36;;;;;;;5.80;2.33;;;14.90;99.90;;;;;;5489033;26;20009;-38
2024/04/09 00:13:04;;;;;;;5.63;2.58;;;14.90;99.90;;;;;;5489218;26;20338;-39
2024/04/09 00:15:30;;;;;;;11.65;2.60;;;14.80;99.90;;;;;;5487246;26;20009;-38
2024/04/09 00:18:12;;;;;;;6.55;2.00;;;14.90;99.90;;;;;;5489232;26;20061;-38
2024/04/09 00:20:42;;;;;;;8.13;1.90;;;14.90;99.90;;;;;;5488879;26;20122;-39
2024/04/09 00:23:09;;;;;;;4.05;1.50;;;14.80;99.90;;;;;;5489014;26;20005;-47
2024/04/09 00:25:37;;;;;;;3.35;1.25;;;14.80;99.90;;;;;;5488719;26;19998;-49
2024/04/09 00:28:03;;;;;;;2.30;1.60;;;14.80;99.90;;;;;;5489200;26;20022;-51
2024/04/09 00:30:29;;;;;;;2.30;1.48;;;14.80;99.90;;;;;;5487556;26;20434;-52
2024/04/09 00:32:55;;;;;;;3.65;1.02;;;14.70;99.90;;;;;;5487778;26;19998;-50
2024/04/09 00:35:22;;;;;;;2.33;0.95;;;14.70;99.90;;;;;;5456864;26;19994;-50
2024/04/09 00:37:54;;;;;;;2.25;0.98;;;14.70;99.90;;;;;;5489147;26;19998;-40
2024/04/09 00:40:24;;;;;;;4.18;0.90;;;14.60;99.90;;;;;;5488717;26;20004;-38
2024/04/09 00:42:52;;;;;;;2.65;1.00;;;14.60;99.90;;;;;;5488852;26;20453;-37
2024/04/09 00:45:18;;;;;;;1.85;1.10;;;14.70;99.90;;;;;;5488487;26;19994;-41
2024/04/09 00:47:48;;;;;;;8.18;1.15;;;14.60;99.90;;;;;;5488188;26;19998;-41
2024/04/09 00:50:14;;;;;;;4.28;1.17;;;14.60;99.90;;;;;;5487478;26;19994;-38
2024/04/09 00:52:41;;;;;;;5.70;0.90;;;14.60;99.90;;;;;;5426323;26;20066;-39
2024/04/09 00:55:11;;;;;;;2.85;0.88;;;14.50;99.90;;;;;;5488742;26;20482;-38
2024/04/09 00:57:39;;;;;;;2.15;0.95;;;14.50;99.90;;;;;;5488578;26;20519;-60
2024/04/09 01:00:06;;;;;;;;;;;14.60;99.90;;;;;;5488412;26;19998;-39
2024/04/09 01:02:33;;;;;;;2.95;1.00;;;14.60;99.90;;;;;;5455949;26;19931;-43
2024/04/09 01:04:59;;;;;;;3.40;1.07;;;14.50;99.90;;;;;;5487758;26;20447;-38
2024/04/09 01:07:26;;;;;;;8.75;0.88;;;14.50;99.90;;;;;;5488039;26;20001;-39
2024/04/09 01:09:52;;;;;;;0.93;0.60;;;14.50;99.90;;;;;;5487380;26;19994;-36
2024/04/09 01:12:18;;;;;;;8.48;1.08;;;14.50;99.90;;;;;;5487968;26;19998;-37
2024/04/09 01:14:43;;;;;;;1.83;0.70;;;14.40;99.90;;;;;;5450137;26;20330;-37
2024/04/09 01:17:10;;;;;;;5.50;0.80;;;14.40;99.90;;;;;;5451578;26;20031;-38
2024/04/09 01:19:35;;;;;;;1.95;1.33;;;14.40;99.90;;;;;;5451851;26;19995;-40
2024/04/09 01:22:01;;;;;;;2.30;0.93;;;14.40;99.90;;;;;;5427735;26;20006;-39
2024/04/09 01:24:28;;;;;;;6.57;0.63;;;14.40;99.90;;;;;;5451949;26;19995;-40
2024/04/09 01:26:54;;;;;;;3.97;1.00;;;14.40;99.90;;;;;;5451691;26;20072;-37
2024/04/09 01:29:21;;;;;;;5.85;1.00;;;14.30;99.90;;;;;;5451461;26;20404;-38
2024/04/09 01:31:48;;;;;;;1.58;0.68;;;14.40;99.90;;;;;;5451470;26;20372;-38
2024/04/09 01:34:15;;;;;;;4.20;1.38;;;14.40;99.90;;;;;;5451549;26;20375;-38
2024/04/09 01:36:41;;;;;;;5.53;1.10;;;14.30;99.90;;;;;;5451500;26;19991;-40
2024/04/09 01:39:08;;;;;;;3.13;1.10;;;14.30;99.90;;;;;;5450961;26;19994;-45
2024/04/09 01:41:38;;;;;;;1.42;0.88;;;14.30;99.90;;;;;;5451450;26;20002;-39
2024/04/09 01:44:04;;;;;;;2.05;0.80;;;14.30;99.90;;;;;;5451567;26;20009;-46
2024/04/09 01:46:30;;;;;;;5.75;0.88;;;14.30;99.90;;;;;;5451232;26;20439;-38
2024/04/09 01:48:56;;;;;;;6.57;1.40;;;14.40;99.90;;;;;;5451095;26;19995;-37
2024/04/09 01:51:21;;;;;;;2.50;0.90;;;14.30;99.90;;;;;;5449472;26;20002;-38
2024/04/09 01:53:48;;;;;;;3.38;0.85;;;14.30;99.90;;;;;;5451121;26;20128;-37
2024/04/09 01:56:15;;;;;;;3.30;1.05;;;14.30;99.90;;;;;;5450920;26;20512;-41
2024/04/09 01:58:41;;;;;;;2.93;1.00;;;14.40;99.90;;;;;;5450917;26;20040;-38
2024/04/09 02:01:09;;;;;;;5.53;0.80;;;14.40;99.90;;;;;;5450842;26;20282;-38
2024/04/09 02:03:38;;;;;;;1.58;0.95;;;14.40;99.90;;;;;;5451058;26;20071;-39
2024/04/09 02:06:04;;;;;;;1.90;0.85;;;14.40;99.90;;;;;;5451066;26;19999;-39
2024/04/09 02:08:30;;;;;;;2.67;0.90;;;14.40;99.90;;;;;;5450547;26;20013;-39
2024/04/09 02:10:56;;;;;;;4.18;1.05;;;14.40;99.90;;;;;;5451035;26;20443;-39
2024/04/09 02:13:24;;;;;;;2.28;1.17;;;14.40;99.90;;;;;;5463717;26;20439;-38
2024/04/09 02:15:50;;;;;;;1.88;0.80;;;14.40;99.90;;;;;;5454948;26;19998;-39
2024/04/09 02:18:16;;;;;;;4.10;1.20;;;14.40;99.90;;;;;;5487183;26;20075;-40
2024/04/09 02:20:44;;;;;;;9.82;1.58;;;14.50;99.90;;;;;;5488481;26;20380;-38
2024/04/09 02:23:10;;;;;;;1.55;1.13;;;14.60;99.90;;;;;;5490980;26;20387;-36
2024/04/09 02:25:39;;;;;;;6.88;1.30;;;14.60;99.90;;;;;;5490528;26;19998;-68
2024/04/09 02:28:05;;;;;;;7.35;1.70;;;14.70;99.90;;;;;;5490916;26;20002;-41
2024/04/09 02:30:32;;;;;;;4.70;1.42;;;14.70;99.90;;;;;;5490178;26;19994;-44
2024/04/09 02:32:58;;;;;;;3.25;2.05;;;14.60;99.90;;;;;;5490449;26;20502;-35
2024/04/09 02:35:24;;;;;;;4.40;1.58;;;14.60;99.90;;;;;;5490143;26;20005;-37
2024/04/09 02:37:49;;;;;;;3.80;1.90;;;14.50;99.90;;;;;;5491014;26;20420;-39
2024/04/09 02:40:15;;;;;;;1.77;1.23;;;14.40;99.90;;;;;;5490881;26;20002;-36
2024/04/09 02:42:43;;;;;;;7.03;2.03;;;14.30;99.90;;;;;;5490551;26;20502;-39
2024/04/09 02:45:09;;;;;;;0.80;0.80;;;14.30;99.90;;;;;;5462452;26;19998;-38
2024/04/09 02:47:35;;;;;;;5.18;0.70;;;14.20;99.90;;;;;;5490341;26;20002;-39
2024/04/09 02:50:02;;;;;;;2.83;1.52;;;14.10;99.90;;;;;;5490588;26;20012;-39
2024/04/09 02:52:28;;;;;;;1.73;0.80;;;14.00;99.90;;;;;;5490247;26;20070;-39
2024/04/09 02:54:53;;;;;;;6.80;1.67;;;14.00;99.90;;;;;;5489912;26;20010;-72
2024/04/09 02:57:19;;;;;;;5.30;1.23;;;13.90;99.90;;;;;;5490491;26;20332;-48
2024/04/09 02:59:45;;;;;;;5.38;1.23;;;13.90;99.90;;;;;;5490349;26;20004;-40
2024/04/09 03:02:10;;;;;;;4.88;0.90;;;13.80;99.90;;;;;;5489972;26;19998;-38
2024/04/09 03:04:36;;;;;;;8.10;1.10;;;13.80;99.90;;;;;;5490220;26;20126;-40
2024/04/09 03:07:03;;;;;;;8.63;1.40;;;13.60;99.90;;;;;;5490249;26;20384;-37
2024/04/09 03:09:30;;;;;;;2.72;0.82;;;13.60;99.90;;;;;;5490391;26;20466;-38
2024/04/09 03:11:56;;;;;;;1.37;0.90;;;13.50;99.90;;;;;;5490009;26;20383;-37
2024/04/09 03:14:23;;;;;;;4.32;0.82;;;13.50;99.90;;;;;;5489771;26;20027;-38
2024/04/09 03:16:50;;;;;;;6.72;1.45;;;13.60;99.90;;;;;;5489857;26;20466;-37
2024/04/09 03:19:18;;;;;;;4.47;1.33;;;13.60;99.90;;;;;;5458226;26;19998;-39
2024/04/09 03:21:44;;;;;;;1.30;1.20;;;13.60;99.90;;;;;;5489483;26;20450;-36
2024/04/09 03:24:10;;;;;;;2.67;1.10;;;13.60;99.90;;;;;;5457859;26;20009;-39
2024/04/09 03:26:39;;;;;;;5.05;1.50;;;13.60;99.90;;;;;;5490169;26;19995;-37
2024/04/09 03:29:04;;;;;;;3.00;1.30;;;13.60;99.90;;;;;;5489956;26;20380;-37
2024/04/09 03:31:30;;;;;;;5.78;1.08;;;13.60;99.90;;;;;;5489253;26;20070;-37
2024/04/09 03:33:56;;;;;;;3.10;0.82;;;13.60;99.90;;;;;;5489829;26;20339;-39
2024/04/09 03:36:22;;;;;;;2.35;1.05;;;13.70;99.90;;;;;;5489825;26;19998;-37
2024/04/09 03:38:47;;;;;;;9.48;1.70;;;13.60;99.90;;;;;;5489655;26;19999;-37
2024/04/09 03:41:13;;;;;;;7.13;2.50;;;13.60;99.90;;;;;;5489554;26;20041;-46
2024/04/09 03:43:39;;;;;;;4.65;1.42;;;13.60;99.90;;;;;;5489749;26;20343;-45
2024/04/09 03:46:12;;;;;;;13.20;2.35;;;13.70;99.90;;;;;;5456912;26;19998;-46
2024/04/09 03:48:43;;;;;;;2.30;1.00;;;13.70;99.90;;;;;;5489549;26;20369;-48
2024/04/09 03:51:09;;;;;;;7.03;1.38;;;13.70;99.90;;;;;;5489420;26;20030;-49
2024/04/09 03:53:36;;;;;;;3.80;0.90;;;13.70;99.90;;;;;;5427552;26;20005;-56
2024/04/09 03:56:03;;;;;;;7.72;1.45;;;13.70;99.90;;;;;;5457061;26;20009;-71
2024/04/09 03:58:31;;;;;;;1.42;0.80;;;13.70;99.90;;;;;;5488988;26;20439;-48
2024/04/09 04:01:03;;;;;;;2.67;1.40;;;13.70;99.90;;;;;;5489326;26;20013;-54
2024/04/09 04:03:30;;;;;;;5.38;2.17;;;13.70;99.90;;;;;;5489662;26;20435;-46
2024/04/09 04:05:57;;;;;;;2.75;1.23;;;13.70;99.90;;;;;;5489344;26;19994;-46
2024/04/09 04:08:25;;;;;;;1.92;1.70;;;13.60;99.90;;;;;;5489357;26;20455;-38
2024/04/09 04:10:53;;;;;;;;;;;13.70;99.90;;;;;;5490008;26;20009;-37
2024/04/09 04:13:21;;;;;;;3.45;1.73;;;13.60;99.90;;;;;;5489178;26;19952;-40
2024/04/09 04:18:59;;;;;;;13.43;3.70;;;13.70;99.90;;;;;;5488463;26;20009;-49
2024/04/09 04:21:25;;;;;;;8.15;3.33;;;13.70;99.90;;;;;;5485369;26;19994;-48
2024/04/09 04:23:54;;;;;;;6.93;3.15;;;13.70;99.90;;;;;;5489074;26;20002;-48
2024/04/09 04:26:26;;;;;;;6.90;2.92;;;13.70;99.90;;;;;;5488909;26;20005;-49
2024/04/09 04:28:53;;;;;;;6.72;3.38;;;13.70;99.90;;;;;;5488821;26;20448;-47
2024/04/09 04:31:25;;;;;;;6.97;2.67;;;13.70;99.90;;;;;;5488919;26;20038;-50
2024/04/09 04:33:51;;;;;;;3.63;2.83;;;13.60;99.90;;;;;;5488673;26;20461;-52
2024/04/09 04:36:18;;;;;;;6.10;3.08;;;13.60;99.90;;;;;;5489057;26;20459;-47
2024/04/09 04:38:45;;;;;;;7.18;3.22;;;13.60;99.90;;;;;;5488606;26;20450;-49
2024/04/09 04:41:11;;;;;;;7.40;3.20;;;13.60;99.90;;;;;;5456862;26;20004;-47
2024/04/09 04:43:38;;;;;;;11.63;2.83;;;13.60;99.90;;;;;;5488042;26;19994;-49
2024/04/09 04:46:04;;;;;;;7.30;2.23;;;13.60;99.90;;;;;;5488584;26;20066;-51
2024/04/09 04:48:30;;;;;;;6.72;1.90;;;13.60;99.90;;;;;;5488627;26;20466;-48
2024/04/09 04:50:56;;;;;;;6.22;1.67;;;13.60;99.90;;;;;;5488633;26;20002;-50
2024/04/09 04:53:22;;;;;;;7.10;1.70;;;13.60;99.90;;;;;;5488667;26;20438;-50
2024/04/09 04:55:51;;;;;;;1.88;0.90;;;13.50;99.90;;;;;;5456504;26;19994;-50
2024/04/09 04:58:19;;;;;;;6.10;1.30;;;13.50;99.90;;;;;;5488664;26;20523;-38
2024/04/09 05:00:44;;;;;;;3.00;0.75;;;13.30;99.90;;;;;;5488465;26;20010;-43
2024/04/09 05:03:10;;;;;;;5.25;1.98;;;13.10;99.90;;;;;;5488332;26;20531;-46
2024/04/09 05:05:36;;;;;;;3.50;1.00;;;13.00;99.90;;;;;;5488857;26;20006;-38
2024/04/09 05:08:02;;;;;;;9.13;1.00;;;13.10;99.90;;;;;;5487869;26;20022;-37
2024/04/09 05:10:28;;;;;;;9.98;1.88;;;13.10;99.90;;;;;;5488442;26;20034;-41
2024/04/09 05:12:54;;;;;;;5.88;1.15;;;13.00;99.90;;;;;;5456110;26;20469;-38
2024/04/09 05:15:21;;;;;;;4.13;1.05;;;12.90;99.90;;;;;;5483244;26;20019;-37
2024/04/09 05:17:48;;;;;;;8.00;2.20;;;12.80;99.90;;;;;;5452006;26;19995;-66
2024/04/09 05:20:14;;;;;;;9.65;1.58;;;12.80;99.90;;;;;;5467008;26;20012;-40
2024/04/09 05:22:47;;;;;;;6.78;1.17;;;12.80;99.90;;;;;;5454923;26;20455;-38
2024/04/09 05:25:14;;;;;;;9.32;2.45;;;12.70;99.90;;;;;;5488087;26;20450;-37
2024/04/09 05:27:40;;;;;;;5.40;2.28;;;12.50;99.90;;;;;;5487572;26;20332;-36
2024/04/09 05:30:07;;;;;;;4.38;1.27;;;12.40;99.90;;;;;;5488023;26;19998;-38
2024/04/09 05:32:39;;;;;;;9.90;1.73;;;12.40;99.90;;;;;;5487568;26;19998;-39
2024/04/09 05:35:05;;;;;;;2.22;1.10;;;12.30;99.90;;;;;;5488152;26;20016;-37
2024/04/09 05:37:31;;;;;;;4.43;1.23;;;12.20;99.90;;;;;;5487050;26;20454;-53
2024/04/09 05:40:00;;;;;;;7.53;1.35;;;12.30;99.90;;;;;;5487323;26;20403;-52
2024/04/09 05:42:25;;;;;;;3.50;1.25;;;12.30;99.90;;;;;;5487835;26;20447;-49
2024/04/09 05:44:51;;;;;;;1.90;1.30;;;12.30;99.90;;;;;;5487874;26;20005;-49
2024/04/09 05:47:20;;;;;;;6.32;1.33;;;12.20;99.90;;;;;;5487575;26;20006;-48
2024/04/09 05:49:47;;;;;;;10.18;0.98;;;12.20;99.90;;;;;;5487565;26;20454;-49
2024/04/09 05:52:13;;;;;;;6.25;1.13;;;12.10;99.90;;;;;;5487677;26;19998;-49
2024/04/09 05:54:40;;;;;;;10.00;2.03;;;12.10;99.90;;;;;;5456080;26;19998;-47
2024/04/09 05:57:06;;;;;;;3.72;1.30;;;12.10;99.90;;;;;;5490788;26;19994;-38
2024/04/09 05:59:33;;;;;;;7.40;1.10;;;12.10;99.90;;;;;;5491279;26;20005;-37
2024/04/09 06:01:58;;;;;;;5.60;1.55;;;12.00;99.90;;;;;;5490803;26;20002;-37
2024/04/09 06:04:24;;;;;;;3.80;0.90;;;12.00;99.90;;;;;;5491001;26;20008;-37
2024/04/09 06:06:51;;;;;;;6.53;1.35;;;12.00;99.90;;;;;;5490986;26;20006;-39
2024/04/09 06:09:16;;;;;;;6.82;0.95;;;12.00;99.90;;;;;;5490571;26;19998;-37
2024/04/09 06:11:42;;;;;;;6.32;1.52;;;12.00;99.90;;;;;;5490591;26;20013;-38
2024/04/09 06:14:08;;;;;;;13.20;1.67;;;12.00;99.90;;;;;;5490983;26;20006;-38
2024/04/09 06:16:33;;;;;;;13.48;1.50;;;12.00;99.90;;;;;;5458840;26;20320;-38
2024/04/09 06:18:59;;;;;;;9.18;2.03;;;12.00;99.90;;;;;;5491179;26;19998;-73
2024/04/09 06:21:25;;;;;;;2.20;1.13;;;12.10;99.90;;;;;;5490558;26;19997;-38
2024/04/09 06:23:51;;;;;;;3.58;1.83;;;12.20;99.90;;;;;;5458743;26;20009;-42
2024/04/09 06:26:19;;;;;;;5.47;1.42;;;12.20;99.90;;;;;;5491010;26;20070;-38
2024/04/09 06:28:46;;;;;;;11.05;2.00;;;12.30;99.90;;;;;;5490087;26;20447;-43
2024/04/09 06:31:11;;;;;;;2.88;1.02;;;12.30;99.90;;;;;;5458018;26;19994;-38
2024/04/09 06:33:37;;;;;;;11.98;1.95;;;12.30;99.90;;;;;;5490575;26;20009;-43
2024/04/09 06:36:03;;;;;;;8.00;1.70;;;12.40;99.90;;;;;;5490667;26;20047;-37
2024/04/09 06:38:30;;;;;;;8.70;1.52;;;12.40;99.90;;;;;;5458244;26;19998;-37
2024/04/09 06:40:56;;;;;;;5.55;1.27;;;12.40;99.90;;;;;;5458479;26;20326;-48
2024/04/09 06:43:22;;;;;;;6.93;1.75;;;12.40;99.90;;;;;;5490468;26;19994;-38
2024/04/09 06:45:48;;;;;;;6.70;2.33;;;12.50;99.90;;;;;;5489523;26;19999;-43
2024/04/09 06:48:14;;;;;;;4.25;1.83;;;12.50;99.90;;;;;;5490424;26;20449;-36
2024/04/09 06:50:40;;;;;;;2.75;2.22;;;12.50;99.90;;;;;;5490288;26;19998;-37
2024/04/09 06:53:06;;;;;;;11.50;2.13;;;12.50;99.90;;;;;;5489999;26;19998;-39
2024/04/09 06:55:32;;;;;;;8.73;2.75;;;12.60;99.90;;;;;;5457933;26;19998;-39
2024/04/09 06:57:57;;;;;;;8.30;2.85;;;12.60;99.90;;;;;;5490018;26;20001;-40
2024/04/09 07:00:23;;;;;;;5.20;2.05;;;12.60;99.90;;;;;;5490250;26;20006;-37
2024/04/09 07:02:49;;;;;;;5.15;2.17;;;12.50;99.90;;;;;;5489177;26;20009;-37
2024/04/09 07:05:15;;;;;;;5.65;1.70;;;12.50;99.90;;;;;;5490237;26;19994;-39
2024/04/09 07:07:41;;;;;;;4.07;2.35;;;12.40;99.90;;;;;;5489474;26;20051;-37
2024/04/09 07:10:07;;;;;;;4.78;1.20;;;12.40;99.90;;;;;;5458278;26;20535;-38
2024/04/09 07:12:33;;;;;;;5.18;1.17;;;12.40;99.90;;;;;;5489348;26;20056;-36
2024/04/09 07:15:00;;;;;;;4.90;0.90;;;12.30;99.90;;;;;;5490295;26;20009;-41
2024/04/09 07:17:25;;;;;;;3.03;1.02;;;12.30;99.90;;;;;;5489678;26;19994;-57
2024/04/09 07:19:55;;;;;;;9.65;0.90;;;12.50;99.90;;;;;;5489859;26;20005;-39
2024/04/09 07:22:21;;;;;;;2.97;0.70;;;12.60;99.90;;;;;;5489698;26;20016;-40
2024/04/09 07:24:47;;;;;;;3.75;0.82;;;12.70;99.90;;;;;;5457810;26;20527;-40
2024/04/09 07:27:13;;;;;;;4.10;1.23;;;12.70;99.90;;;;;;5489640;26;20034;-39
2024/04/09 07:29:38;;;;;;;5.25;0.90;;;12.70;99.90;;;;;;5489940;26;19994;-39
2024/04/09 07:32:07;;;;;;;5.72;0.70;;;12.70;99.90;;;;;;5489263;26;19999;-38
2024/04/09 07:34:34;;;;;;;4.85;0.70;;;12.70;99.90;;;;;;5489675;26;20063;-44
2024/04/09 07:37:00;;;;;;;5.10;0.98;;;12.60;99.90;;;;;;5456782;26;19994;-44
2024/04/09 07:39:26;;;;;;;2.35;0.70;;;12.60;99.90;;;;;;5489678;26;20478;-45
2024/04/09 07:41:51;;;;;;;1.70;0.80;;;12.60;99.90;;;;;;5457379;26;19998;-39
2024/04/09 07:44:17;;;;;;;4.65;0.80;;;12.70;99.90;;;;;;5489697;26;20463;-45
2024/04/09 07:46:48;;;;;;;6.10;0.85;;;12.60;99.90;;;;;;5489272;26;20071;-40
2024/04/09 07:49:14;;;;;;;2.38;0.80;;;12.60;99.90;;;;;;5489736;26;20005;-38
2024/04/09 07:51:40;;;;;;;6.03;0.95;;;12.70;99.90;;;;;;5457538;26;20446;-42
2024/04/09 07:54:06;;;;;;;3.38;1.17;;;12.70;99.90;;;;;;5456862;26;19995;-41
2024/04/09 07:56:33;;;;;;;5.80;0.55;;;12.70;99.90;;;;;;5437263;26;20435;-41
2024/04/09 07:58:59;;;;;;;3.97;0.70;;;12.70;99.90;;;;;;5453303;26;20057;-43
2024/04/09 08:01:24;;;;;;;4.47;0.50;;;12.70;99.90;;;;;;5473537;26;20006;-44
2024/04/09 08:03:50;;;;;;;2.63;0.68;;;12.70;99.90;;;;;;5489420;26;19998;-51
2024/04/09 08:06:16;;;;;;;2.53;1.73;;;13.00;99.90;;;;;;5489183;26;20022;-43
2024/04/09 08:08:41;;;;;;;8.13;0.77;;;13.20;99.90;;;;;;5456843;26;19998;-44
2024/04/09 08:11:11;;;;;;;6.47;0.77;;;13.30;99.90;;;;;;5456642;26;20002;-43
2024/04/09 08:13:37;;;;;;;1.83;0.57;;;13.20;99.90;;;;;;5488808;26;19998;-41
2024/04/09 08:16:04;;;;;;;8.60;0.82;;;13.00;99.90;;;;;;5473178;26;20371;-49
2024/04/09 08:18:30;;;;;;;0.98;0.50;;;12.80;99.90;;;;;;5460595;26;20447;-44
2024/04/09 08:20:55;;;;;;;2.50;1.25;;;12.70;99.90;;;;;;5489186;26;20419;-40
2024/04/09 08:23:21;;;;;;;6.13;1.13;;;12.60;99.90;;;;;;5489055;26;19994;-42
2024/04/09 08:25:49;;;;;;;4.00;0.65;;;12.50;99.90;;;;;;5488751;26;19998;-51
2024/04/09 08:28:15;;;;;;;11.20;0.75;;;12.60;99.90;;;;;;5488237;26;20453;-41
2024/04/09 08:30:40;;;;;;;4.95;0.43;;;12.60;99.90;;;;;;5488920;26;20002;-44
2024/04/09 08:33:06;;;;;;;8.88;1.83;;;12.60;99.90;;;;;;5489146;26;20069;-52
2024/04/09 08:35:32;;;;;;;5.88;0.70;;;12.70;99.90;;;;;;5488788;26;20419;-44
2024/04/09 08:37:57;;;;;;;2.53;0.52;;;12.80;99.90;;;;;;5488910;26;20595;-40
2024/04/09 08:40:24;;;;;;;4.90;1.05;;;12.70;99.90;;;;;;5489052;26;20005;-53
2024/04/09 08:42:53;;;;;;;3.85;0.80;;;12.60;99.90;;;;;;5489041;26;19998;-43
2024/04/09 08:45:19;;;;;;;3.45;0.93;;;12.50;99.90;;;;;;5488522;26;20351;-45
2024/04/09 08:47:45;;;;;;;1.67;0.50;;;12.40;99.90;;;;;;5488874;26;20016;-61
2024/04/09 08:50:12;;;;;;;1.55;0.90;;;12.30;99.90;;;;;;5488644;26;20450;-41
2024/04/09 08:52:38;;;;;;;7.47;1.00;;;12.20;99.90;;;;;;5487892;26;20564;-42
2024/04/09 08:55:08;;;;;;;1.83;0.77;;;12.20;99.90;;;;;;5488308;26;20009;-43
2024/04/09 08:57:34;;;;;;;4.80;0.50;;;12.10;99.90;;;;;;5488582;26;20006;-46
2024/04/09 09:00:00;;;;;;;1.23;0.50;;;12.20;99.90;;;;;;5488429;26;20450;-55
2024/04/09 09:02:26;;;;;;;3.38;0.80;;;12.20;99.90;;;;;;5482097;26;19997;-56
2024/04/09 09:04:52;;;;;;;8.07;0.82;;;12.20;99.90;;;;;;5488057;26;20434;-55
2024/04/09 09:07:19;;;;;;;1.13;0.57;;;12.30;99.90;;;;;;5456081;26;20063;-57
2024/04/09 09:09:47;;;;;;;3.55;1.15;;;12.40;99.90;;;;;;5488281;26;20002;-58
2024/04/09 09:12:13;;;;;;;2.75;0.65;;;12.60;99.90;;;;;;5488149;26;19990;-71
2024/04/09 09:14:49;;;;;;;2.88;0.70;;;12.80;99.90;;;;;;5488377;26;19990;-54
2024/04/09 09:17:15;;;;;;;1.08;0.98;;;13.20;99.90;;;;;;5488668;26;20006;-57
2024/04/09 09:19:41;;;;;;;2.80;0.70;;;13.60;99.90;;;;;;5487839;26;19994;-56
2024/04/09 09:22:11;;;;;;;2.35;0.47;;;13.50;99.90;;;;;;5488067;26;20453;-57
2024/04/09 09:24:37;;;;;;;5.88;1.23;;;13.50;99.90;;;;;;5488243;26;20029;-56
2024/04/09 09:27:12;;;;;;;4.30;0.45;;;13.10;99.90;;;;;;5488194;26;20462;-55
2024/04/09 09:29:37;;;;;;;1.17;0.47;;;12.90;99.90;;;;;;5489149;26;20511;-55
2024/04/09 09:32:04;;;;;;;0.68;0.40;;;12.80;99.90;;;;;;5491745;26;20006;-55
2024/04/09 09:34:43;;;;;;;3.72;0.85;;;12.90;99.90;;;;;;5491501;26;20006;-55
2024/04/09 09:37:10;;;;;;;1.70;0.80;;;13.00;99.90;;;;;;5491790;26;20431;-54
2024/04/09 09:39:38;;;;;;;0.40;0.40;;;13.00;99.90;;;;;;5491288;26;20361;-52
2024/04/09 09:42:05;;;;;;;1.88;0.80;;;13.00;99.90;;;;;;5459271;26;19994;-55
2024/04/09 09:44:36;;;;;;;11.83;1.00;;;12.90;99.90;;;;;;5491278;26;19998;-68
2024/04/09 09:47:05;;;;;;;2.28;0.45;;;12.90;99.90;;;;;;5491323;26;19998;-61
2024/04/09 09:49:32;;;;;;;1.45;0.85;;;12.80;99.90;;;;;;5491130;26;20037;-55
2024/04/09 09:51:59;;;;;;;6.53;0.98;;;12.70;99.90;;;;;;5491365;26;20451;-54
2024/04/09 09:54:27;;;;;;;5.20;1.20;;;12.70;99.90;;;;;;5491247;26;20481;-53
2024/04/09 09:57:14;;;;;;;4.93;0.52;;;12.80;99.90;;;;;;5490084;26;19994;-54
2024/04/09 09:59:46;;;;;;;2.28;0.20;;;12.90;99.90;;;;;;5489994;26;20350;-56
2024/04/09 10:02:13;;;;;;;1.67;0.75;;;12.80;99.90;;;;;;5479268;26;19998;-56
2024/04/09 10:04:38;;;;;;;1.48;0.40;;;12.80;99.90;;;;;;5459054;26;20470;-55
2024/04/09 10:07:04;;;;;;;6.53;0.88;;;12.80;99.90;;;;;;5490813;26;19994;-56
2024/04/09 10:09:56;;;;;;;1.15;0.45;;;13.10;99.90;;;;;;5490148;26;20040;-57
2024/04/09 10:12:30;;;;;;;2.67;0.45;;;13.10;99.90;;;;;;5482424;26;19994;-47
2024/04/09 10:14:57;;;;;;;0.73;0.30;;;13.30;99.90;;;;;;5454655;26;19995;-56
2024/04/09 10:17:27;;;;;;;0.70;0.28;;;13.40;99.90;;;;;;5448709;26;19994;-55
2024/04/09 10:19:53;;;;;;;2.88;0.60;;;13.40;99.90;;;;;;5490518;26;20102;-56
2024/04/09 10:22:18;;;;;;;4.43;0.50;;;13.20;99.90;;;;;;5490758;26;20034;-56
2024/04/09 10:24:44;;;;;;;2.03;0.40;;;13.30;99.90;;;;;;5458529;26;19994;-55
2024/04/09 10:27:11;;;;;;;5.38;0.50;;;13.40;99.90;;;;;;5491041;26;20322;-57
2024/04/09 10:29:37;;;;;;;2.83;0.43;;;13.50;99.90;;;;;;5491305;26;19998;-53
2024/04/09 10:32:22;;;;;;;3.50;0.68;;;13.40;99.90;;;;;;5490733;26;20471;-54
2024/04/09 10:34:48;;;;;;;1.27;0.55;;;13.40;99.90;;;;;;5490985;26;20041;-56
2024/04/09 10:37:17;;;;;;;4.97;0.50;;;13.30;99.90;;;;;;5490456;26;19998;-55
2024/04/09 10:39:42;;;;;;;4.40;0.50;;;13.20;99.90;;;;;;5491025;26;19994;-56
2024/04/09 10:42:08;;;;;;;5.18;0.60;;;13.30;99.90;;;;;;5489321;26;20009;-56
2024/04/09 10:44:33;;;;;;;0.65;0.40;;;13.30;99.90;;;;;;5458470;26;19998;-55
2024/04/09 10:46:59;;;;;;;1.20;0.38;;;13.30;99.90;;;;;;5490302;26;20006;-52
2024/04/09 10:49:25;;;;;;;1.13;0.50;;;13.40;99.90;;;;;;5457774;26;20055;-55
2024/04/09 10:51:51;;;;;;;1.23;0.50;;;13.40;99.90;;;;;;5490303;26;20461;-52
2024/04/09 10:54:16;;;;;;;3.10;0.52;;;13.30;99.90;;;;;;5490249;26;20006;-58
2024/04/09 10:56:42;;;;;;;5.68;0.68;;;13.30;99.90;;;;;;5488023;26;20323;-73
2024/04/09 10:59:15;;;;;;;2.67;0.73;;;13.30;99.90;;;;;;5489719;26;20495;-56
2024/04/09 11:01:42;;;;;;;0.93;0.35;;;13.30;99.90;;;;;;5482440;26;20036;-54
2024/04/09 11:04:11;;;;;;;4.75;0.60;;;13.40;99.90;;;;;;5489927;26;20339;-55
2024/04/09 11:06:37;;;;;;;2.47;0.40;;;13.20;99.90;;;;;;5458080;26;20067;-62
2024/04/09 11:09:05;;;;;;;4.70;1.00;;;13.10;99.90;;;;;;5458238;26;20467;-56
2024/04/09 11:11:31;;;;;;;2.42;0.57;;;13.00;99.90;;;;;;5490208;26;20425;-55
2024/04/09 11:13:57;;;;;;;4.22;0.63;;;13.10;99.90;;;;;;5489929;26;19994;-56
2024/04/09 11:16:23;;;;;;;4.00;0.80;;;13.10;99.90;;;;;;5490373;26;20473;-57
2024/04/09 11:19:01;;;;;;;0.85;0.80;;;13.00;99.90;;;;;;5489794;26;19990;-57
2024/04/09 11:21:28;;;;;;;3.58;0.65;;;13.00;99.90;;;;;;5489889;26;20046;-55
2024/04/09 11:23:55;;;;;;;0.95;0.20;;;13.00;99.90;;;;;;5489967;26;20478;-56
2024/04/09 11:26:21;;;;;;;1.65;0.80;;;13.10;99.90;;;;;;5490003;26;20026;-56
2024/04/09 11:28:52;;;;;;;7.22;0.88;;;13.00;99.90;;;;;;5489925;26;20446;-56
2024/04/09 11:31:24;;;;;;;3.15;1.48;;;13.10;99.90;;;;;;5457774;26;20470;-55
2024/04/09 11:33:50;;;;;;;6.38;0.70;;;13.20;99.90;;;;;;5488238;26;19998;-55
2024/04/09 11:36:16;;;;;;;3.53;0.52;;;13.20;99.90;;;;;;5457349;26;19994;-55
2024/04/09 11:38:42;;;;;;;2.90;1.02;;;13.30;99.90;;;;;;5457628;26;20312;-56
2024/04/09 11:41:08;;;;;;;1.55;0.75;;;13.40;99.90;;;;;;5489213;26;20016;-56
2024/04/09 11:43:34;;;;;;;1.30;0.95;;;13.50;99.90;;;;;;5486344;26;20004;-56
2024/04/09 11:46:00;;;;;;;4.05;0.88;;;13.40;99.90;;;;;;5489303;26;19994;-51
2024/04/09 11:48:26;;;;;;;0.77;0.52;;;13.30;99.90;;;;;;5489417;26;19994;-63
2024/04/09 11:50:52;;;;;;;3.38;0.80;;;13.30;99.90;;;;;;5487350;26;20013;-56
2024/04/09 11:53:18;;;;;;;2.53;0.47;;;13.30;99.90;;;;;;5489167;26;19994;-56
2024/04/09 11:55:44;;;;;;;1.13;0.50;;;13.20;99.90;;;;;;5489233;26;20009;-54
2024/04/09 11:58:10;;;;;;;5.75;1.45;;;13.10;99.90;;;;;;5489339;26;19998;-55
2024/04/09 12:00:36;;;;;;;1.55;0.73;;;13.00;99.90;;;;;;5489529;26;20335;-53
2024/04/09 12:03:03;;;;;;;0.73;0.40;;;12.90;99.90;;;;;;5489759;26;20523;-54
2024/04/09 12:05:29;;;;;;;0.85;0.57;;;12.90;99.90;;;;;;5489537;26;20324;-49
2024/04/09 12:07:55;;;;;;;2.17;0.50;;;12.90;99.90;;;;;;5489241;26;20008;-56
2024/04/09 12:10:22;;;;;;;0.60;0.60;;;12.80;99.90;;;;;;5489161;26;19994;-59
2024/04/09 12:12:48;;;;;;;12.55;0.52;;;12.80;99.90;;;;;;5488805;26;20491;-54
2024/04/09 12:15:14;;;;;;;4.05;0.82;;;12.80;99.90;;;;;;5489795;26;19998;-54
2024/04/09 12:17:41;;;;;;;4.13;0.40;;;12.80;99.90;;;;;;5489241;26;19998;-53
2024/04/09 12:20:08;;;;;;;5.70;1.02;;;12.80;99.90;;;;;;5457049;26;20018;-57
2024/04/09 12:22:34;;;;;;;4.45;0.90;;;12.90;99.90;;;;;;5489596;26;19994;-54
2024/04/09 12:25:00;;;;;;;4.93;1.00;;;13.00;99.90;;;;;;5484070;26;20002;-53
2024/04/09 12:27:26;;;;;;;3.83;0.65;;;12.90;99.90;;;;;;5450994;26;20006;-54
2024/04/09 12:29:52;;;;;;;6.28;0.90;;;12.80;99.90;;;;;;5487162;26;20018;-56
2024/04/09 12:32:18;;;;;;;3.15;0.52;;;12.80;99.90;;;;;;5488868;26;20012;-59
2024/04/09 12:34:45;;;;;;;7.60;0.50;;;12.80;99.90;;;;;;5488984;26;20451;-54
2024/04/09 12:37:11;;;;;;;1.13;0.40;;;12.70;99.90;;;;;;5488927;26;20005;-57
2024/04/09 12:39:37;;;;;;;0.38;0.22;;;12.70;99.90;;;;;;5488960;26;20066;-53
2024/04/09 12:42:03;;;;;;;1.48;0.65;;;12.70;99.90;;;;;;5488817;26;20005;-56
2024/04/09 12:44:29;;;;;;;5.43;1.85;;;12.80;99.90;;;;;;5488808;26;20490;-49
2024/04/09 12:46:55;;;;;;;3.67;0.30;;;12.90;99.90;;;;;;5456101;26;20338;-52
2024/04/09 12:49:28;;;;;;;3.05;0.50;;;12.90;99.90;;;;;;5489025;26;19994;-55